Accueil
METAR-TAF:

METAR-TAF

Aéroports :

Buochs, Suisse

latitude: 46-58-28N, longitude: 8-23-49E, altitude: 449 m

Observation

Le bulletin a été fait il y a 22 minutes, à 21:50 UTC
Vent 4 kt de direction variable
Température 20°C
Humidité 73%
Pression 1019 hPa
Visibilité 10 km ou plus

METAR: LSZC 212150Z AUTO VRB04KT 9999 NSC 20/15 Q1019

Heure: 00:12 (22:12 UTC)

Prévision

Le bulletin a été fait il y a 7 heures et 47 minutes, à 14:25 UTC
Prévision valable du 21 à 15 UTC au 21 à 24 UTC
Vent 3 kt de direction variable
Visibilité 10 km ou plus
Quelques nuages à une hauteur de 6000 ft
Temporairement
du 21 à 15 UTC au 21 à 18 UTC
Quelques nuages à une hauteur de 6000 ft, Cumulus congestus.
Probabilité 40% :
Temporairement
du 21 à 15 UTC au 21 à 21 UTC
averses de pluie

TAF: LSZC 211425Z 2115/2124 VRB03KT 9999 FEW060 TEMPO 2115/2118 FEW060TCU PROB40 TEMPO 2115/2121 SHRA

Observations et prévisions météorologiques de plus de 4000 aéroports (messages METAR et TAF).

Les stations disponibles sont représentées par des disques jaunes et rouges sur la carte.

Passer la souris dessus pour voir le nom de la station.

Cliquer dessus pour voir les observations et prévisions météorologiques.

Pour changer de carte: cliquez sur les boutons verts avec une croix noire pour zoomer, sur le bouton vert avec un tiret pour effectuer un zoom arrière, ou sur les flèches vertes pour les cartes adjacentes.


METAR-TAF: